EZS75NE LFRN-LSGG
Flight info
| Callsign | EZS75NE |
|---|---|
| Flight time | N/A |
| Altitude | 18000 |
| Route | SABLE H34 KOVAK/N0347F190 H20 DOMOD A3 MOTAL R11 BALMU A6 DJL |
| Aircraft | A320/M-SDE2E3FGHIJ1RWXYZ/LB1 |
Departure
| Time | 2026-04-23 16:20 |
|---|---|
| Airport | Rennes-Saint-Jacques Airport (LFRN) |
Arrival
| Time | N/A |
|---|---|
| Airport | Geneva International Airport (LSGG) |
| Time | Latitude | Longitude | Altitude | Speed | Heading |
|---|---|---|---|---|---|
| 2026-04-23 15:53 | 48.06889 | -1.72572 | 133 ft | 0 kts | 225° |
| 2026-04-23 16:11 | 48.06889 | -1.72571 | 133 ft | 1 kts | 225° |
| 2026-04-23 16:11 | 48.06907 | -1.72547 | 133 ft | 4 kts | 219° |
| 2026-04-23 16:12 | 48.06928 | -1.72523 | 133 ft | 4 kts | 217° |
| 2026-04-23 16:12 | 48.06947 | -1.72497 | 133 ft | 4 kts | 257° |
| 2026-04-23 16:12 | 48.06948 | -1.72486 | 133 ft | 0 kts | 280° |
| 2026-04-23 16:15 | 48.06949 | -1.72492 | 133 ft | 3 kts | 280° |
| 2026-04-23 16:15 | 48.06961 | -1.72593 | 133 ft | 17 kts | 280° |
| 2026-04-23 16:16 | 48.06989 | -1.72815 | 133 ft | 22 kts | 281° |
| 2026-04-23 16:16 | 48.07017 | -1.73034 | 133 ft | 21 kts | 281° |
| 2026-04-23 16:16 | 48.07043 | -1.73239 | 132 ft | 20 kts | 281° |
| 2026-04-23 16:16 | 48.07070 | -1.73443 | 128 ft | 21 kts | 281° |
| 2026-04-23 16:17 | 48.07176 | -1.73576 | 123 ft | 21 kts | 333° |
| 2026-04-23 16:17 | 48.07254 | -1.73715 | 115 ft | 16 kts | 284° |
| 2026-04-23 16:17 | 48.07283 | -1.73922 | 109 ft | 28 kts | 280° |
| 2026-04-23 16:17 | 48.07318 | -1.74236 | 102 ft | 31 kts | 282° |
| 2026-04-23 16:18 | 48.07313 | -1.74494 | 91 ft | 24 kts | 251° |
| 2026-04-23 16:18 | 48.07326 | -1.74597 | 87 ft | 4 kts | 13° |
| 2026-04-23 16:18 | 48.07352 | -1.74564 | 89 ft | 10 kts | 50° |
| 2026-04-23 16:18 | 48.07354 | -1.74500 | 94 ft | 0 kts | 103° |
| 2026-04-23 16:19 | 48.07344 | -1.74418 | 96 ft | 35 kts | 101° |
| 2026-04-23 16:19 | 48.07254 | -1.73696 | 113 ft | 105 kts | 101° |
| 2026-04-23 16:20 | 48.07076 | -1.72335 | 203 ft | 155 kts | 101° |
| 2026-04-23 16:20 | 48.06875 | -1.70751 | 919 ft | 154 kts | 101° |
| 2026-04-23 16:20 | 48.06665 | -1.69145 | 1560 ft | 165 kts | 102° |
| 2026-04-23 16:20 | 48.06419 | -1.67358 | 1915 ft | 186 kts | 101° |
| 2026-04-23 16:21 | 48.06160 | -1.65352 | 2248 ft | 211 kts | 100° |
| 2026-04-23 16:21 | 48.05871 | -1.63052 | 2727 ft | 233 kts | 100° |
| 2026-04-23 16:21 | 48.05567 | -1.60622 | 3564 ft | 240 kts | 100° |
| 2026-04-23 16:21 | 48.05256 | -1.58145 | 4494 ft | 244 kts | 101° |
| 2026-04-23 16:22 | 48.04912 | -1.55629 | 5361 ft | 250 kts | 103° |
| 2026-04-23 16:22 | 48.04535 | -1.53065 | 6191 ft | 256 kts | 104° |
| 2026-04-23 16:22 | 48.04143 | -1.50453 | 7026 ft | 259 kts | 103° |
| 2026-04-23 16:22 | 48.03746 | -1.47809 | 7854 ft | 263 kts | 103° |
| 2026-04-23 16:23 | 48.03343 | -1.45129 | 8686 ft | 266 kts | 103° |
| 2026-04-23 16:23 | 48.02935 | -1.42409 | 9500 ft | 270 kts | 102° |
| 2026-04-23 16:23 | 48.02523 | -1.39656 | 10297 ft | 274 kts | 102° |
| 2026-04-23 16:23 | 48.02097 | -1.36805 | 10713 ft | 292 kts | 102° |
| 2026-04-23 16:24 | 48.01640 | -1.33736 | 10975 ft | 313 kts | 102° |
| 2026-04-23 16:24 | 48.01160 | -1.30513 | 11549 ft | 322 kts | 102° |
| 2026-04-23 16:24 | 48.00667 | -1.27226 | 12228 ft | 327 kts | 102° |
| 2026-04-23 16:24 | 48.00164 | -1.23881 | 12903 ft | 333 kts | 102° |
| 2026-04-23 16:25 | 47.99651 | -1.20489 | 13566 ft | 338 kts | 102° |
| 2026-04-23 16:25 | 47.99130 | -1.17043 | 14207 ft | 343 kts | 102° |
| 2026-04-23 16:25 | 47.98604 | -1.13538 | 14798 ft | 348 kts | 102° |
| 2026-04-23 16:25 | 47.98070 | -1.09991 | 15398 ft | 353 kts | 102° |
| 2026-04-23 16:26 | 47.97526 | -1.06397 | 15978 ft | 357 kts | 102° |
| 2026-04-23 16:26 | 47.96973 | -1.02764 | 16563 ft | 362 kts | 102° |
| 2026-04-23 16:26 | 47.96408 | -0.99079 | 17133 ft | 367 kts | 101° |
| 2026-04-23 16:26 | 47.95833 | -0.95342 | 17707 ft | 371 kts | 101° |
| 2026-04-23 16:27 | 47.95260 | -0.91601 | 18106 ft | 376 kts | 101° |
| 2026-04-23 16:27 | 47.94690 | -0.87781 | 18210 ft | 377 kts | 101° |
| 2026-04-23 16:27 | 47.94129 | -0.83963 | 18217 ft | 377 kts | 100° |
| 2026-04-23 16:27 | 47.93571 | -0.80141 | 18221 ft | 377 kts | 100° |
| 2026-04-23 16:28 | 47.93014 | -0.76328 | 18220 ft | 376 kts | 101° |
| 2026-04-23 16:28 | 47.92456 | -0.72521 | 18217 ft | 376 kts | 101° |
| 2026-04-23 16:28 | 47.91893 | -0.68712 | 18219 ft | 376 kts | 101° |
| 2026-04-23 16:28 | 47.91327 | -0.64905 | 18221 ft | 376 kts | 101° |
| 2026-04-23 16:29 | 47.90758 | -0.61099 | 18215 ft | 376 kts | 101° |
| 2026-04-23 16:29 | 47.90194 | -0.57340 | 18208 ft | 376 kts | 101° |
| 2026-04-23 16:29 | 47.89622 | -0.53539 | 18211 ft | 376 kts | 101° |
| 2026-04-23 16:29 | 47.89050 | -0.49734 | 18214 ft | 376 kts | 101° |
| 2026-04-23 16:30 | 47.88477 | -0.45928 | 18211 ft | 376 kts | 101° |
| 2026-04-23 16:30 | 47.87905 | -0.42132 | 18210 ft | 376 kts | 101° |
| 2026-04-23 16:30 | 47.87329 | -0.38334 | 18206 ft | 376 kts | 101° |
| 2026-04-23 16:30 | 47.86752 | -0.34542 | 18206 ft | 375 kts | 101° |
| 2026-04-23 16:31 | 47.86172 | -0.30755 | 18201 ft | 375 kts | 101° |
| 2026-04-23 16:31 | 47.85660 | -0.26959 | 18200 ft | 374 kts | 95° |
| 2026-04-23 16:31 | 47.85617 | -0.23109 | 18201 ft | 371 kts | 83° |
| 2026-04-23 16:31 | 47.86043 | -0.19330 | 18212 ft | 370 kts | 77° |
| 2026-04-23 16:32 | 47.86566 | -0.15578 | 18213 ft | 370 kts | 77° |
| 2026-04-23 16:32 | 47.87073 | -0.11822 | 18214 ft | 370 kts | 77° |
| 2026-04-23 16:32 | 47.87567 | -0.08070 | 18215 ft | 369 kts | 78° |
| 2026-04-23 16:32 | 47.88057 | -0.04313 | 18217 ft | 369 kts | 78° |
| 2026-04-23 16:33 | 47.88544 | -0.00569 | 18218 ft | 368 kts | 78° |
| 2026-04-23 16:33 | 47.89029 | 0.03171 | 18221 ft | 368 kts | 78° |
| 2026-04-23 16:33 | 47.89517 | 0.06922 | 18222 ft | 368 kts | 78° |
| 2026-04-23 16:33 | 47.90003 | 0.10661 | 18221 ft | 368 kts | 78° |
| 2026-04-23 16:34 | 47.90487 | 0.14418 | 18218 ft | 368 kts | 78° |
| 2026-04-23 16:34 | 47.90971 | 0.18167 | 18221 ft | 369 kts | 78° |
| 2026-04-23 16:34 | 47.91459 | 0.21914 | 18219 ft | 369 kts | 78° |
| 2026-04-23 16:34 | 47.91947 | 0.25666 | 18220 ft | 369 kts | 78° |
| 2026-04-23 16:35 | 47.92425 | 0.29371 | 18220 ft | 369 kts | 78° |
| 2026-04-23 16:35 | 47.92901 | 0.33127 | 18219 ft | 369 kts | 78° |
| 2026-04-23 16:35 | 47.93375 | 0.36888 | 18223 ft | 369 kts | 78° |
| 2026-04-23 16:35 | 47.93850 | 0.40657 | 18223 ft | 369 kts | 78° |
| 2026-04-23 16:36 | 47.94325 | 0.44420 | 18223 ft | 370 kts | 78° |
| 2026-04-23 16:36 | 47.94799 | 0.48193 | 18218 ft | 370 kts | 78° |
| 2026-04-23 16:36 | 47.95271 | 0.51972 | 18219 ft | 370 kts | 78° |
| 2026-04-23 16:36 | 47.95740 | 0.55747 | 18222 ft | 370 kts | 78° |
| 2026-04-23 16:37 | 47.96207 | 0.59527 | 18221 ft | 371 kts | 78° |
| 2026-04-23 16:37 | 47.96673 | 0.63310 | 18221 ft | 371 kts | 78° |
| 2026-04-23 16:37 | 47.97141 | 0.67092 | 18220 ft | 371 kts | 78° |
| 2026-04-23 16:37 | 47.97609 | 0.70876 | 18223 ft | 371 kts | 78° |
| 2026-04-23 16:38 | 47.98076 | 0.74659 | 18223 ft | 371 kts | 78° |
| 2026-04-23 16:38 | 47.98540 | 0.78451 | 18225 ft | 371 kts | 78° |
| 2026-04-23 16:38 | 47.98833 | 0.82282 | 18223 ft | 373 kts | 89° |
| 2026-04-23 16:38 | 47.98563 | 0.86130 | 18227 ft | 374 kts | 101° |
| 2026-04-23 16:39 | 47.97774 | 0.89827 | 18223 ft | 376 kts | 112° |
| 2026-04-23 16:39 | 47.96704 | 0.93391 | 18224 ft | 376 kts | 113° |
| 2026-04-23 16:39 | 47.95642 | 0.96956 | 18222 ft | 377 kts | 113° |
| 2026-04-23 16:39 | 47.94586 | 1.00537 | 18226 ft | 377 kts | 112° |
| 2026-04-23 16:40 | 47.93534 | 1.04117 | 18223 ft | 377 kts | 112° |
| 2026-04-23 16:40 | 47.92478 | 1.07708 | 18222 ft | 378 kts | 112° |
| 2026-04-23 16:40 | 47.91434 | 1.11248 | 18223 ft | 378 kts | 112° |
| 2026-04-23 16:40 | 47.90374 | 1.14827 | 18220 ft | 378 kts | 112° |
| 2026-04-23 16:41 | 47.89306 | 1.18419 | 18220 ft | 379 kts | 112° |
| 2026-04-23 16:41 | 47.88234 | 1.22006 | 18220 ft | 380 kts | 112° |
| 2026-04-23 16:41 | 47.87157 | 1.25596 | 18222 ft | 380 kts | 112° |
| 2026-04-23 16:41 | 47.86082 | 1.29184 | 18222 ft | 380 kts | 112° |
| 2026-04-23 16:42 | 47.85004 | 1.32779 | 18220 ft | 380 kts | 112° |
| 2026-04-23 16:42 | 47.83921 | 1.36377 | 18221 ft | 380 kts | 112° |
| 2026-04-23 16:42 | 47.82838 | 1.39973 | 18222 ft | 381 kts | 112° |
| 2026-04-23 16:42 | 47.81753 | 1.43571 | 18220 ft | 381 kts | 113° |
| 2026-04-23 16:43 | 47.80670 | 1.47161 | 18214 ft | 382 kts | 112° |
| 2026-04-23 16:43 | 47.79579 | 1.50768 | 18219 ft | 382 kts | 112° |
| 2026-04-23 16:43 | 47.78488 | 1.54375 | 18220 ft | 382 kts | 113° |
| 2026-04-23 16:43 | 47.77396 | 1.57979 | 18220 ft | 382 kts | 113° |
| 2026-04-23 16:44 | 47.76669 | 1.60369 | 18220 ft | 383 kts | 113° |
| 2026-04-23 16:44 | 47.75571 | 1.63965 | 18222 ft | 383 kts | 113° |
| 2026-04-23 16:44 | 47.74468 | 1.67568 | 18218 ft | 383 kts | 113° |
| 2026-04-23 16:44 | 47.73364 | 1.71171 | 18219 ft | 383 kts | 113° |
| 2026-04-23 16:45 | 47.72260 | 1.74777 | 18215 ft | 383 kts | 113° |
| 2026-04-23 16:45 | 47.71158 | 1.78383 | 18218 ft | 384 kts | 113° |
| 2026-04-23 16:45 | 47.70055 | 1.81985 | 18220 ft | 383 kts | 113° |
| 2026-04-23 16:45 | 47.68949 | 1.85580 | 18230 ft | 383 kts | 113° |
| 2026-04-23 16:46 | 47.67839 | 1.89181 | 18232 ft | 384 kts | 113° |
| 2026-04-23 16:46 | 47.66726 | 1.92787 | 18232 ft | 384 kts | 113° |
| 2026-04-23 16:46 | 47.65614 | 1.96388 | 18223 ft | 384 kts | 113° |
| 2026-04-23 16:46 | 47.64500 | 1.99985 | 18224 ft | 384 kts | 113° |
| 2026-04-23 16:47 | 47.63382 | 2.03586 | 18227 ft | 385 kts | 113° |
| 2026-04-23 16:47 | 47.62262 | 2.07185 | 18232 ft | 385 kts | 114° |
| 2026-04-23 16:47 | 47.61140 | 2.10785 | 18238 ft | 385 kts | 114° |
| 2026-04-23 16:47 | 47.60017 | 2.14384 | 18233 ft | 385 kts | 114° |
| 2026-04-23 16:48 | 47.58937 | 2.18012 | 18232 ft | 384 kts | 108° |
| 2026-04-23 16:48 | 47.58299 | 2.21838 | 18230 ft | 382 kts | 95° |
| 2026-04-23 16:48 | 47.58212 | 2.25752 | 18228 ft | 380 kts | 83° |
| 2026-04-23 16:48 | 47.58592 | 2.29552 | 18222 ft | 378 kts | 76° |
| 2026-04-23 16:49 | 47.59086 | 2.33382 | 18229 ft | 378 kts | 77° |
| 2026-04-23 16:49 | 47.59553 | 2.37219 | 18229 ft | 379 kts | 77° |
| 2026-04-23 16:49 | 47.60012 | 2.41109 | 18224 ft | 379 kts | 77° |
| 2026-04-23 16:49 | 47.60456 | 2.44897 | 18230 ft | 379 kts | 77° |
| 2026-04-23 16:50 | 47.60912 | 2.48741 | 18216 ft | 379 kts | 77° |
| 2026-04-23 16:50 | 47.61368 | 2.52586 | 18215 ft | 379 kts | 77° |
| 2026-04-23 16:50 | 47.61826 | 2.56437 | 18226 ft | 379 kts | 77° |
| 2026-04-23 16:50 | 47.62284 | 2.60280 | 18231 ft | 379 kts | 77° |
| 2026-04-23 16:51 | 47.62744 | 2.64132 | 18226 ft | 379 kts | 77° |